createdAt,value
2018-11-12T00:02:01.703Z,1.23
2018-11-12T00:04:32.053Z,1.13
2018-11-12T00:07:02.437Z,1.63
2018-11-12T00:09:32.596Z,1.87
2018-11-12T00:12:03.293Z,1.03
2018-11-12T00:14:33.285Z,1.53
2018-11-12T00:17:03.977Z,0.90
2018-11-12T00:19:34.126Z,3.83
2018-11-12T00:22:04.391Z,2.67
2018-11-12T00:24:34.487Z,1.40
2018-11-12T00:27:04.676Z,1.63
2018-11-12T00:29:34.625Z,1.93
2018-11-12T00:32:05.443Z,1.57
2018-11-12T00:34:35.546Z,2.03
2018-11-12T00:37:05.541Z,1.10
2018-11-12T00:39:35.701Z,1.50
2018-11-12T00:42:06.311Z,0.90
2018-11-12T00:44:37.186Z,1.57
2018-11-12T00:47:07.371Z,1.67
2018-11-12T00:49:38.436Z,1.10
2018-11-12T00:52:09.027Z,1.97
2018-11-12T00:54:39.110Z,1.43
2018-11-12T00:57:11.996Z,0.80
2018-11-12T00:59:42.227Z,1.20
2018-11-12T01:02:12.135Z,1.73
2018-11-12T01:04:42.476Z,1.27
2018-11-12T01:07:12.791Z,0.70
2018-11-12T01:09:42.898Z,0.90
2018-11-12T01:12:13.198Z,1.53
2018-11-12T01:14:43.406Z,1.57
2018-11-12T01:17:13.457Z,0.90
2018-11-12T01:19:43.295Z,1.80
2018-11-12T01:22:13.251Z,1.90
2018-11-12T01:24:43.101Z,3.00
2018-11-12T01:27:12.880Z,3.60
2018-11-12T01:29:42.720Z,1.00
2018-11-12T01:32:13.064Z,2.17
2018-11-12T01:34:42.866Z,0.63
2018-11-12T01:37:13.185Z,1.20
2018-11-12T01:39:43.705Z,1.27
2018-11-12T01:42:13.636Z,1.67
2018-11-12T01:44:43.520Z,1.00
2018-11-12T01:47:13.506Z,1.33
2018-11-12T01:49:43.665Z,1.03
2018-11-12T01:52:13.705Z,2.37
2018-11-12T01:54:44.415Z,1.00
2018-11-12T01:57:14.522Z,2.37
2018-11-12T01:59:44.505Z,2.33
2018-11-12T02:02:15.251Z,2.63
2018-11-12T02:04:46.166Z,0.73
2018-11-12T02:07:16.676Z,0.40
2018-11-12T02:09:46.522Z,0.90
2018-11-12T02:12:16.953Z,0.70
2018-11-12T02:14:47.115Z,0.53
2018-11-12T02:17:16.973Z,3.20
2018-11-12T02:19:46.801Z,0.70
2018-11-12T02:22:16.753Z,0.97
2018-11-12T02:24:46.761Z,0.77
2018-11-12T02:27:17.139Z,0.77
2018-11-12T02:29:47.025Z,1.40
2018-11-12T02:32:17.526Z,0.93
2018-11-12T02:34:47.490Z,1.60
2018-11-12T02:37:17.956Z,1.40
2018-11-12T02:39:47.832Z,1.03
2018-11-12T02:42:17.592Z,1.27
2018-11-12T02:44:47.543Z,1.03
2018-11-12T02:47:17.280Z,0.60
2018-11-12T02:49:47.052Z,0.80
2018-11-12T02:52:16.817Z,1.67
2018-11-12T02:54:47.290Z,0.83
2018-11-12T02:57:17.168Z,1.80
2018-11-12T02:59:47.708Z,3.23
2018-11-12T03:02:17.712Z,1.80
2018-11-12T03:04:47.667Z,1.70
2018-11-12T03:07:17.633Z,1.33
2018-11-12T03:09:47.436Z,0.93
2018-11-12T03:12:17.547Z,0.80
2018-11-12T03:14:47.470Z,3.07
2018-11-12T03:17:17.239Z,1.13
2018-11-12T03:19:47.165Z,0.50
2018-11-12T03:22:17.660Z,1.20
2018-11-12T03:24:48.236Z,0.60
2018-11-12T03:27:17.991Z,1.43
2018-11-12T03:29:47.890Z,0.87
2018-11-12T03:32:17.691Z,1.10
2018-11-12T03:34:47.449Z,0.87
2018-11-12T03:37:17.639Z,2.80
2018-11-12T03:39:54.828Z,1.93
2018-11-12T03:42:24.718Z,0.83
2018-11-12T03:45:01.412Z,3.87
2018-11-12T03:47:31.175Z,1.33
2018-11-12T03:50:01.638Z,2.47
2018-11-12T03:52:31.407Z,0.87
2018-11-12T03:55:01.140Z,0.97
2018-11-12T03:57:30.971Z,1.33
2018-11-12T04:00:00.762Z,1.90
2018-11-12T04:02:31.267Z,1.33
2018-11-12T04:05:01.112Z,0.40
2018-11-12T04:07:31.800Z,0.73
2018-11-12T04:10:01.752Z,1.77
2018-11-12T04:12:31.515Z,0.57
2018-11-12T04:15:01.240Z,0.40
2018-11-12T04:17:31.671Z,0.97
2018-11-12T04:20:01.511Z,0.90
2018-11-12T04:22:31.994Z,0.70
2018-11-12T04:25:01.795Z,1.90
2018-11-12T04:27:31.544Z,1.57
2018-11-12T04:30:01.451Z,0.60
2018-11-12T04:32:31.965Z,1.00
2018-11-12T04:35:02.431Z,0.57
2018-11-12T04:37:32.152Z,1.27
2018-11-12T04:40:02.009Z,3.17
2018-11-12T04:42:31.784Z,1.37
2018-11-12T04:45:02.215Z,1.20
2018-11-12T04:47:32.169Z,2.50
2018-11-12T04:50:02.000Z,1.00
2018-11-12T04:52:32.255Z,2.27
2018-11-12T04:55:02.021Z,0.90
2018-11-12T04:57:31.855Z,1.83
2018-11-12T05:00:01.700Z,2.10
2018-11-12T05:02:32.169Z,3.47
2018-11-12T05:05:02.245Z,0.83
2018-11-12T05:07:32.641Z,1.23
2018-11-12T05:10:02.676Z,0.80
2018-11-12T05:12:32.550Z,2.50
2018-11-12T05:15:03.385Z,2.37
2018-11-12T05:17:33.311Z,1.30
2018-11-12T05:20:03.438Z,1.10
2018-11-12T05:22:34.009Z,0.73
2018-11-12T05:25:03.930Z,1.03
2018-11-12T05:27:34.184Z,2.10
2018-11-12T05:30:04.375Z,1.47
2018-11-12T05:32:34.576Z,1.83
2018-11-12T05:35:04.744Z,4.57
2018-11-12T05:37:35.006Z,0.63
2018-11-12T05:40:06.334Z,0.80
2018-11-12T05:42:36.245Z,1.27
2018-11-12T05:45:06.828Z,2.70
2018-11-12T05:47:37.491Z,1.03
2018-11-12T05:50:16.783Z,2.77
2018-11-12T05:52:47.679Z,3.20
2018-11-12T05:55:18.879Z,1.80
2018-11-12T05:57:49.020Z,1.23
2018-11-12T06:00:21.877Z,1.70
2018-11-12T06:02:51.687Z,1.87
2018-11-12T06:05:21.632Z,2.07
2018-11-12T06:07:52.041Z,2.37
2018-11-12T06:10:23.065Z,2.03
2018-11-12T06:12:53.285Z,2.43
2018-11-12T06:15:23.123Z,1.80
2018-11-12T06:17:53.185Z,2.80
2018-11-12T06:20:25.475Z,2.67
2018-11-12T06:22:55.513Z,2.90
2018-11-12T06:25:27.306Z,2.57
2018-11-12T06:27:57.463Z,4.13
2018-11-12T06:30:28.800Z,4.80
2018-11-12T06:32:59.638Z,3.43
2018-11-12T06:35:29.695Z,3.37
2018-11-12T06:38:00.216Z,2.17
2018-11-12T06:40:30.236Z,3.00
2018-11-12T06:43:00.021Z,3.17
2018-11-12T06:45:31.684Z,2.23
2018-11-12T06:48:01.867Z,3.60
2018-11-12T06:50:33.115Z,3.63
2018-11-12T06:53:03.493Z,3.90
2018-11-12T06:55:33.351Z,3.17
2018-11-12T06:58:03.104Z,4.07
2018-11-12T07:00:34.764Z,2.33
2018-11-12T07:03:04.865Z,3.47
2018-11-12T07:05:35.438Z,3.07
2018-11-12T07:08:06.236Z,5.53
2018-11-12T07:10:36.112Z,3.67
2018-11-12T07:13:06.258Z,2.77
2018-11-12T07:15:36.085Z,2.40
2018-11-12T07:18:06.228Z,2.50
2018-11-12T07:20:36.012Z,3.63
2018-11-12T07:23:06.109Z,4.87
2018-11-12T07:25:35.884Z,2.67
2018-11-12T07:28:05.883Z,5.00
2018-11-12T07:30:36.153Z,2.13
2018-11-12T07:33:06.094Z,2.67
2018-11-12T07:35:36.731Z,2.53
2018-11-12T07:38:06.823Z,2.83
2018-11-12T07:40:36.924Z,4.40
2018-11-12T07:43:06.751Z,3.20
2018-11-12T07:45:36.500Z,3.77
2018-11-12T07:48:06.598Z,2.70
2018-11-12T07:50:36.746Z,3.77
2018-11-12T07:53:06.620Z,3.50
2018-11-12T07:55:37.051Z,5.67
2018-11-12T07:58:07.556Z,6.97
2018-11-12T08:00:38.603Z,7.80
2018-11-12T08:03:10.666Z,5.10
2018-11-12T08:05:41.295Z,4.77
2018-11-12T08:08:11.372Z,6.17
2018-11-12T08:10:41.278Z,5.00
2018-11-12T08:13:11.918Z,5.43
2018-11-12T08:15:41.766Z,6.20
2018-11-12T08:18:11.749Z,6.80
2018-11-12T08:20:41.688Z,6.03
2018-11-12T08:23:11.556Z,6.53
2018-11-12T08:25:42.391Z,8.60
2018-11-12T08:28:12.307Z,5.50
2018-11-12T08:30:42.305Z,6.63
2018-11-12T08:33:13.082Z,6.93
2018-11-12T08:35:43.018Z,6.83
2018-11-12T08:38:19.647Z,5.67
2018-11-12T08:40:49.540Z,7.30
2018-11-12T08:43:19.234Z,6.70
2018-11-12T08:45:49.089Z,5.57
2018-11-12T08:48:19.642Z,5.60
2018-11-12T08:50:49.453Z,7.53
2018-11-12T08:53:20.093Z,8.00
2018-11-12T08:55:49.974Z,6.80
2018-11-12T08:58:20.582Z,6.50
2018-11-12T09:00:50.743Z,9.40
2018-11-12T09:03:20.602Z,6.33
2018-11-12T09:05:50.489Z,7.60
2018-11-12T09:08:20.669Z,7.57
2018-11-12T09:10:50.610Z,8.00
2018-11-12T09:13:21.202Z,8.67
2018-11-12T09:15:51.366Z,7.27
2018-11-12T09:18:21.534Z,6.67
2018-11-12T09:20:51.491Z,8.43
2018-11-12T09:23:21.473Z,6.00
2018-11-12T09:25:51.620Z,8.33
2018-11-12T09:28:21.756Z,8.03
2018-11-12T09:30:53.840Z,7.00
2018-11-12T09:33:22.590Z,7.67
2018-11-12T09:35:52.680Z,8.00
2018-11-12T09:38:22.968Z,7.93
2018-11-12T09:40:53.310Z,8.00
2018-11-12T09:43:23.464Z,6.30
2018-11-12T09:45:53.778Z,8.20
2018-11-12T09:48:23.996Z,8.30
2018-11-12T09:50:54.054Z,8.87
2018-11-12T09:53:24.112Z,7.37
2018-11-12T09:55:54.834Z,8.57
2018-11-12T09:58:25.572Z,8.20
2018-11-12T10:00:56.282Z,11.03
2018-11-12T10:03:29.571Z,11.37
2018-11-12T10:06:01.714Z,13.77
2018-11-12T10:08:36.640Z,7.10
2018-11-12T10:11:07.754Z,7.37
2018-11-12T10:13:39.170Z,6.80
2018-11-12T10:16:09.021Z,9.20
2018-11-12T10:18:35.703Z,9.57
2018-11-12T10:21:06.053Z,5.80
2018-11-12T10:23:36.479Z,5.37
2018-11-12T10:26:07.112Z,5.13
2018-11-12T10:28:36.994Z,5.30
2018-11-12T10:31:07.005Z,5.83
2018-11-12T10:33:37.186Z,4.77
2018-11-12T10:36:07.323Z,4.67
2018-11-12T10:38:37.422Z,5.73
2018-11-12T10:41:07.917Z,6.13
2018-11-12T10:45:00.154Z,4.63
2018-11-12T10:47:31.116Z,6.87
2018-11-12T10:50:02.874Z,4.07
2018-11-12T10:52:34.628Z,5.73
2018-11-12T10:55:05.534Z,7.37
2018-11-12T10:57:35.271Z,4.93
2018-11-12T11:00:08.095Z,8.43
2018-11-12T11:02:42.057Z,5.40
2018-11-12T11:05:12.056Z,7.37
2018-11-12T11:07:42.114Z,3.83
2018-11-12T11:10:12.735Z,3.43
2018-11-12T11:12:43.284Z,3.50
2018-11-12T11:15:13.243Z,4.40
2018-11-12T11:17:43.124Z,3.20
2018-11-12T11:20:13.242Z,3.97
2018-11-12T11:22:56.010Z,6.17
2018-11-12T11:25:25.977Z,7.00
2018-11-12T11:30:45.340Z,5.20
2018-11-12T11:35:55.513Z,3.47
2018-11-12T11:38:25.623Z,6.43
2018-11-12T11:40:55.594Z,4.67
2018-11-12T11:43:26.136Z,3.57
2018-11-12T11:45:56.232Z,3.90
2018-11-12T11:48:26.057Z,4.73
2018-11-12T11:50:56.554Z,4.83
2018-11-12T11:53:26.668Z,2.53
2018-11-12T11:55:56.853Z,4.57
2018-11-12T11:58:27.150Z,5.63
2018-11-12T12:00:57.145Z,6.23
2018-11-12T12:03:27.807Z,4.00
2018-11-12T12:05:57.673Z,3.80
2018-11-12T12:08:27.650Z,5.10
2018-11-12T12:10:57.702Z,4.63
2018-11-12T12:13:27.722Z,4.73
2018-11-12T12:15:57.876Z,3.00
2018-11-12T12:18:27.869Z,2.77
2018-11-12T12:20:58.003Z,5.83
2018-11-12T12:23:27.843Z,3.73
2018-11-12T12:25:58.365Z,1.73
2018-11-12T12:28:28.297Z,3.03
2018-11-12T12:30:58.462Z,4.70
2018-11-12T12:33:29.152Z,1.73
2018-11-12T12:36:00.233Z,2.97
2018-11-12T12:38:30.394Z,8.17
2018-11-12T12:41:00.679Z,3.13
2018-11-12T12:43:30.695Z,5.73
2018-11-12T12:46:00.938Z,3.73
2018-11-12T12:48:30.739Z,2.27
2018-11-12T12:51:01.450Z,4.43
2018-11-12T12:53:31.723Z,3.77
2018-11-12T12:56:02.541Z,3.43
2018-11-12T12:58:32.997Z,1.70
2018-11-12T13:01:03.073Z,1.77
2018-11-12T13:03:33.165Z,4.80
2018-11-12T13:06:03.729Z,1.70
2018-11-12T13:08:34.713Z,3.37
2018-11-12T13:11:04.712Z,2.40
2018-11-12T13:13:34.531Z,1.83
2018-11-12T13:16:04.748Z,3.53
2018-11-12T13:18:35.590Z,6.77
2018-11-12T13:21:05.668Z,3.03
2018-11-12T13:23:35.918Z,4.80
2018-11-12T13:26:06.120Z,3.63
2018-11-12T13:28:36.069Z,2.50
2018-11-12T13:31:06.499Z,2.27
2018-11-12T13:33:36.679Z,3.57
2018-11-12T13:36:07.146Z,3.90
2018-11-12T13:38:37.257Z,2.43
2018-11-12T13:41:08.273Z,2.07
2018-11-12T13:43:38.434Z,3.53
2018-11-12T13:46:08.561Z,1.93
2018-11-12T13:48:38.726Z,2.70
2018-11-12T13:51:08.763Z,6.40
2018-11-12T13:53:38.706Z,2.83
2018-11-12T13:56:09.111Z,5.07
2018-11-12T13:58:39.040Z,2.33
2018-11-12T14:01:09.078Z,3.93
2018-11-12T14:03:39.019Z,2.60
2018-11-12T14:06:09.160Z,2.90
2018-11-12T14:08:39.245Z,1.87
2018-11-12T14:11:09.028Z,2.87
2018-11-12T14:13:38.816Z,5.60
2018-11-12T14:16:08.777Z,3.73
2018-11-12T14:18:38.631Z,3.00
2018-11-12T14:21:08.607Z,2.63
2018-11-12T14:23:38.554Z,2.60
2018-11-12T14:26:08.671Z,2.60
2018-11-12T14:28:45.353Z,3.70
2018-11-12T14:31:15.313Z,3.17
2018-11-12T14:33:45.110Z,4.90
2018-11-12T14:36:15.653Z,2.60
2018-11-12T14:38:45.576Z,3.63
2018-11-12T14:41:15.485Z,3.87
2018-11-12T14:43:45.433Z,3.63
2018-11-12T14:46:16.258Z,3.13
2018-11-12T14:48:46.721Z,2.73
2018-11-12T14:51:19.503Z,5.40
2018-11-12T14:53:49.971Z,6.10
2018-11-12T14:56:21.106Z,7.33
2018-11-12T14:58:51.101Z,5.57
2018-11-12T15:01:21.626Z,7.90
2018-11-12T15:03:51.617Z,9.47
2018-11-12T15:06:21.879Z,8.27
2018-11-12T15:08:52.832Z,9.53
2018-11-12T15:11:23.021Z,8.47
2018-11-12T15:13:53.611Z,8.27
2018-11-12T15:16:23.570Z,13.70
2018-11-12T15:18:53.711Z,12.20
2018-11-12T15:21:23.658Z,9.57
2018-11-12T15:23:54.605Z,11.13
2018-11-12T15:26:24.581Z,8.53
2018-11-12T15:28:54.614Z,9.90
2018-11-12T15:31:24.577Z,10.27
2018-11-12T15:33:54.733Z,10.73
2018-11-12T15:36:25.327Z,7.90
2018-11-12T15:38:55.310Z,11.10
2018-11-12T15:41:25.180Z,8.80
2018-11-12T15:43:55.660Z,14.40
2018-11-12T15:46:25.828Z,11.57
2018-11-12T15:48:56.024Z,13.17
2018-11-12T15:51:26.042Z,13.50
2018-11-12T15:53:57.076Z,10.07
2018-11-12T15:56:26.937Z,11.17
2018-11-12T15:58:56.902Z,13.80
2018-11-12T16:01:27.399Z,16.17
2018-11-12T16:03:57.304Z,11.23
2018-11-12T16:06:27.513Z,13.33
2018-11-12T16:08:57.433Z,16.17
2018-11-12T16:11:27.306Z,14.37
2018-11-12T16:13:57.238Z,15.80
2018-11-12T16:16:27.249Z,22.23
2018-11-12T16:18:57.297Z,18.10
2018-11-12T16:21:27.492Z,20.37
2018-11-12T16:23:57.515Z,19.83
2018-11-12T16:26:27.655Z,19.00
2018-11-12T16:28:57.514Z,22.13
2018-11-12T16:31:27.459Z,23.93
2018-11-12T16:33:57.310Z,27.03
2018-11-12T16:36:27.710Z,22.47
2018-11-12T16:38:58.064Z,26.07
2018-11-12T16:41:28.458Z,25.73
2018-11-12T16:43:58.496Z,30.60
2018-11-12T16:46:28.565Z,28.90
2018-11-12T16:48:58.462Z,30.00
2018-11-12T16:51:28.309Z,32.27
2018-11-12T16:53:58.274Z,28.50
2018-11-12T16:56:28.319Z,32.03
2018-11-12T16:58:58.395Z,31.17
2018-11-12T17:01:28.345Z,28.30
2018-11-12T17:03:58.347Z,32.20
2018-11-12T17:06:28.155Z,33.40
2018-11-12T17:08:58.065Z,29.87
2018-11-12T17:11:30.873Z,30.50
2018-11-12T17:14:00.858Z,32.87
2018-11-12T17:16:30.756Z,30.27
2018-11-12T17:19:00.752Z,33.10
2018-11-12T17:21:30.766Z,33.33
2018-11-12T17:24:01.419Z,39.57
2018-11-12T17:26:32.413Z,34.87
2018-11-12T17:29:02.265Z,37.20
2018-11-12T17:31:32.234Z,33.97
2018-11-12T17:34:02.169Z,36.63
2018-11-12T17:36:32.545Z,35.80
2018-11-12T17:39:02.842Z,36.20
2018-11-12T17:41:32.942Z,38.07
2018-11-12T17:44:03.125Z,36.40
2018-11-12T17:46:33.410Z,40.07
2018-11-12T17:49:03.619Z,39.33
2018-11-12T17:51:33.718Z,41.80
2018-11-12T17:54:03.673Z,43.03
2018-11-12T17:56:34.004Z,42.87
2018-11-12T17:59:04.536Z,47.27
2018-11-12T18:01:34.632Z,37.13
2018-11-12T18:04:04.657Z,39.43
2018-11-12T18:06:34.582Z,41.87
2018-11-12T18:09:06.138Z,43.10
2018-11-12T18:11:36.244Z,50.07
2018-11-12T18:14:07.563Z,43.40
2018-11-12T18:16:37.566Z,44.97
2018-11-12T18:19:08.420Z,40.87
2018-11-12T18:21:43.201Z,42.03
2018-11-12T18:24:13.238Z,42.27
2018-11-12T18:26:44.128Z,43.13
2018-11-12T18:29:14.053Z,41.30
2018-11-12T18:31:44.052Z,42.43
2018-11-12T18:34:13.852Z,46.67
2018-11-12T18:36:43.988Z,41.90
2018-11-12T18:39:13.791Z,38.70
2018-11-12T18:41:43.696Z,44.13
2018-11-12T18:44:13.825Z,43.03
2018-11-12T18:46:44.492Z,35.40
2018-11-12T18:49:14.311Z,32.00
2018-11-12T18:51:45.135Z,36.40
2018-11-12T18:54:15.100Z,40.10
2018-11-12T18:56:45.742Z,36.37
2018-11-12T18:59:17.952Z,39.37
2018-11-12T19:01:48.055Z,36.00
2018-11-12T19:04:18.076Z,39.80
2018-11-12T19:06:48.509Z,41.70
2018-11-12T19:09:18.465Z,39.63
2018-11-12T19:11:48.405Z,45.83
2018-11-12T19:14:18.338Z,39.57
2018-11-12T19:16:48.270Z,35.33
2018-11-12T19:19:18.221Z,33.47
2018-11-12T19:21:48.629Z,34.80
2018-11-12T19:24:18.679Z,33.23
2018-11-12T19:26:48.650Z,34.63
2018-11-12T19:29:18.783Z,36.10
2018-11-12T19:31:48.735Z,36.17
2018-11-12T19:34:18.686Z,34.87
2018-11-12T19:36:48.692Z,36.80
2018-11-12T19:39:18.800Z,38.23
2018-11-12T19:41:48.755Z,44.10
2018-11-12T19:44:19.418Z,46.50
2018-11-12T19:46:49.521Z,49.53
2018-11-12T19:49:19.521Z,44.80
2018-11-12T19:51:50.324Z,43.97
2018-11-12T19:54:21.104Z,46.07
2018-11-12T19:56:50.950Z,44.20
2018-11-12T19:59:21.734Z,45.20
2018-11-12T20:01:51.797Z,44.03
2018-11-12T20:04:21.871Z,38.77
2018-11-12T20:06:52.136Z,38.00
2018-11-12T20:09:23.429Z,35.57
2018-11-12T20:11:53.663Z,32.60
2018-11-12T20:14:24.501Z,33.13
2018-11-12T20:16:54.448Z,34.77
2018-11-12T20:19:25.083Z,35.53
2018-11-12T20:21:55.247Z,38.03
2018-11-12T20:24:25.505Z,40.00
2018-11-12T20:26:56.490Z,46.37
2018-11-12T20:29:26.968Z,39.87
2018-11-12T20:31:57.060Z,39.33
2018-11-12T20:34:27.229Z,42.23
2018-11-12T20:36:57.316Z,42.73
2018-11-12T20:39:27.691Z,45.03
2018-11-12T20:41:57.935Z,50.10
2018-11-12T20:44:28.033Z,45.97
2018-11-12T20:46:58.118Z,47.77
2018-11-12T20:49:28.117Z,51.17
2018-11-12T20:51:58.851Z,47.97
2018-11-12T20:54:28.961Z,50.47
2018-11-12T20:56:59.107Z,53.00
2018-11-12T20:59:29.052Z,55.23
2018-11-12T21:01:59.357Z,56.97
2018-11-12T21:04:29.517Z,53.80
2018-11-12T21:06:59.995Z,51.10
2018-11-12T21:09:30.141Z,55.07
2018-11-12T21:12:00.355Z,55.50
2018-11-12T21:14:30.451Z,51.60
2018-11-12T21:17:00.857Z,57.53
2018-11-12T21:19:31.179Z,56.93
2018-11-12T21:22:02.339Z,60.57
2018-11-12T21:24:32.610Z,57.27
2018-11-12T21:27:03.320Z,63.37
2018-11-12T21:29:33.739Z,60.80
2018-11-12T21:32:04.172Z,61.60
2018-11-12T21:34:35.085Z,58.53
2018-11-12T21:37:05.574Z,56.63
2018-11-12T21:39:36.563Z,57.27
2018-11-12T21:42:06.716Z,56.67
2018-11-12T21:44:36.956Z,56.17
2018-11-12T21:47:07.808Z,61.07
2018-11-12T21:49:38.076Z,60.27
2018-11-12T21:52:08.247Z,61.67
2018-11-12T21:54:38.343Z,55.10
2018-11-12T21:57:08.858Z,55.13
2018-11-12T21:59:38.854Z,60.37
2018-11-12T22:02:08.889Z,56.90
2018-11-12T22:04:38.803Z,56.37
2018-11-12T22:07:09.247Z,57.67
2018-11-12T22:09:39.107Z,51.60
2018-11-12T22:12:09.765Z,55.97
2018-11-12T22:14:39.775Z,55.87
2018-11-12T22:17:10.055Z,63.10
2018-11-12T22:19:40.331Z,58.57
2018-11-12T22:22:10.483Z,57.00
2018-11-12T22:24:40.683Z,59.83
2018-11-12T22:27:10.489Z,55.87
2018-11-12T22:29:41.360Z,58.70
2018-11-12T22:32:11.405Z,52.83
2018-11-12T22:34:41.754Z,52.77
2018-11-12T22:37:12.917Z,52.53
2018-11-12T22:39:43.148Z,56.10
2018-11-12T22:42:13.085Z,55.60
2018-11-12T22:44:43.089Z,57.83
2018-11-12T22:47:13.399Z,55.20
2018-11-12T22:49:43.973Z,58.93
2018-11-12T22:52:14.018Z,63.67
2018-11-12T22:54:46.288Z,61.70
2018-11-12T22:57:16.380Z,59.90
2018-11-12T22:59:47.483Z,66.87
2018-11-12T23:02:17.488Z,63.57
2018-11-12T23:04:47.904Z,57.30
2018-11-12T23:07:18.097Z,56.80
2018-11-12T23:09:48.319Z,63.63
2018-11-12T23:12:19.391Z,67.80
2018-11-12T23:14:49.597Z,61.23
2018-11-12T23:17:19.918Z,63.07
2018-11-12T23:19:50.230Z,64.57
2018-11-12T23:22:21.226Z,62.80
2018-11-12T23:24:52.583Z,64.97
2018-11-12T23:27:22.478Z,67.40
2018-11-12T23:29:52.877Z,64.70
2018-11-12T23:32:23.812Z,63.80
2018-11-12T23:34:53.544Z,64.07
2018-11-12T23:37:23.743Z,68.03
2018-11-12T23:39:53.779Z,63.87
2018-11-12T23:42:23.679Z,65.13
2018-11-12T23:44:53.883Z,66.80
2018-11-12T23:47:24.039Z,67.80
2018-11-12T23:49:54.281Z,74.90
2018-11-12T23:52:24.470Z,72.13
2018-11-12T23:54:54.706Z,73.60
2018-11-12T23:57:24.802Z,77.73
2018-11-12T23:59:54.911Z,76.40
